sensor_id;sensor_type;location;lat;lon;timestamp;temperature;humidity
43338;DHT22;28933;52.492;13.434;2023-04-21T00:02:15;13.50;96.80
43338;DHT22;28933;52.492;13.434;2023-04-21T00:04:41;13.50;96.80
43338;DHT22;28933;52.492;13.434;2023-04-21T00:07:10;13.50;96.90
43338;DHT22;28933;52.492;13.434;2023-04-21T00:09:35;13.40;96.90
43338;DHT22;28933;52.492;13.434;2023-04-21T00:12:01;13.40;96.90
43338;DHT22;28933;52.492;13.434;2023-04-21T00:14:27;13.40;97.00
43338;DHT22;28933;52.492;13.434;2023-04-21T00:16:52;13.30;97.00
43338;DHT22;28933;52.492;13.434;2023-04-21T00:19:18;13.30;97.10
43338;DHT22;28933;52.492;13.434;2023-04-21T00:21:44;13.30;97.10
43338;DHT22;28933;52.492;13.434;2023-04-21T00:24:10;13.20;97.10
43338;DHT22;28933;52.492;13.434;2023-04-21T00:26:36;13.20;97.10
43338;DHT22;28933;52.492;13.434;2023-04-21T00:29:02;13.20;97.20
43338;DHT22;28933;52.492;13.434;2023-04-21T00:31:28;13.10;97.20
43338;DHT22;28933;52.492;13.434;2023-04-21T00:33:54;13.10;97.20
43338;DHT22;28933;52.492;13.434;2023-04-21T00:36:20;13.10;97.20
43338;DHT22;28933;52.492;13.434;2023-04-21T00:38:45;13.00;97.20
43338;DHT22;28933;52.492;13.434;2023-04-21T00:41:11;13.00;97.20
43338;DHT22;28933;52.492;13.434;2023-04-21T00:43:37;13.00;97.20
43338;DHT22;28933;52.492;13.434;2023-04-21T00:46:22;13.00;97.30
43338;DHT22;28933;52.492;13.434;2023-04-21T00:48:48;12.90;97.20
43338;DHT22;28933;52.492;13.434;2023-04-21T00:51:13;12.90;97.30
43338;DHT22;28933;52.492;13.434;2023-04-21T00:53:39;12.90;97.30
43338;DHT22;28933;52.492;13.434;2023-04-21T00:56:05;12.80;97.20
43338;DHT22;28933;52.492;13.434;2023-04-21T00:58:32;12.80;97.30
43338;DHT22;28933;52.492;13.434;2023-04-21T01:00:58;12.80;97.30
43338;DHT22;28933;52.492;13.434;2023-04-21T01:03:23;12.70;97.20
43338;DHT22;28933;52.492;13.434;2023-04-21T01:05:49;12.70;97.20
43338;DHT22;28933;52.492;13.434;2023-04-21T01:08:15;12.70;97.20
43338;DHT22;28933;52.492;13.434;2023-04-21T01:10:41;12.70;97.20
43338;DHT22;28933;52.492;13.434;2023-04-21T01:13:06;12.70;97.20
43338;DHT22;28933;52.492;13.434;2023-04-21T01:15:32;12.70;97.20
43338;DHT22;28933;52.492;13.434;2023-04-21T01:17:58;12.60;97.10
43338;DHT22;28933;52.492;13.434;2023-04-21T01:20:23;12.60;97.10
43338;DHT22;28933;52.492;13.434;2023-04-21T01:22:49;12.60;97.10
43338;DHT22;28933;52.492;13.434;2023-04-21T01:25:15;12.50;97.00
43338;DHT22;28933;52.492;13.434;2023-04-21T01:27:43;12.50;97.00
43338;DHT22;28933;52.492;13.434;2023-04-21T01:30:08;12.50;97.00
43338;DHT22;28933;52.492;13.434;2023-04-21T01:32:35;12.50;96.90
43338;DHT22;28933;52.492;13.434;2023-04-21T01:35:01;12.40;96.90
43338;DHT22;28933;52.492;13.434;2023-04-21T01:37:30;12.40;96.90
43338;DHT22;28933;52.492;13.434;2023-04-21T01:39:58;12.40;96.80
43338;DHT22;28933;52.492;13.434;2023-04-21T01:42:26;12.40;96.80
43338;DHT22;28933;52.492;13.434;2023-04-21T01:44:52;12.30;96.80
43338;DHT22;28933;52.492;13.434;2023-04-21T01:47:18;12.30;96.70
43338;DHT22;28933;52.492;13.434;2023-04-21T01:49:45;12.30;96.80
43338;DHT22;28933;52.492;13.434;2023-04-21T01:52:10;12.30;96.80
43338;DHT22;28933;52.492;13.434;2023-04-21T01:54:36;12.20;96.80
43338;DHT22;28933;52.492;13.434;2023-04-21T01:57:02;12.20;96.70
43338;DHT22;28933;52.492;13.434;2023-04-21T01:59:28;12.20;96.70
43338;DHT22;28933;52.492;13.434;2023-04-21T02:01:53;12.20;96.70
43338;DHT22;28933;52.492;13.434;2023-04-21T02:04:19;12.20;96.70
43338;DHT22;28933;52.492;13.434;2023-04-21T02:06:45;12.20;96.70
43338;DHT22;28933;52.492;13.434;2023-04-21T02:09:10;12.10;96.60
43338;DHT22;28933;52.492;13.434;2023-04-21T02:11:36;12.20;96.70
43338;DHT22;28933;52.492;13.434;2023-04-21T02:14:02;12.10;96.60
43338;DHT22;28933;52.492;13.434;2023-04-21T02:16:27;12.10;96.60
43338;DHT22;28933;52.492;13.434;2023-04-21T02:18:55;12.10;96.60
43338;DHT22;28933;52.492;13.434;2023-04-21T02:21:30;12.10;96.60
43338;DHT22;28933;52.492;13.434;2023-04-21T02:23:57;12.00;96.60
43338;DHT22;28933;52.492;13.434;2023-04-21T02:26:22;12.00;96.60
43338;DHT22;28933;52.492;13.434;2023-04-21T02:28:48;12.00;96.60
43338;DHT22;28933;52.492;13.434;2023-04-21T02:31:15;12.00;96.60
43338;DHT22;28933;52.492;13.434;2023-04-21T02:33:41;12.00;96.50
43338;DHT22;28933;52.492;13.434;2023-04-21T02:36:06;12.00;96.50
43338;DHT22;28933;52.492;13.434;2023-04-21T02:38:32;11.90;96.50
43338;DHT22;28933;52.492;13.434;2023-04-21T02:40:58;12.00;96.50
43338;DHT22;28933;52.492;13.434;2023-04-21T02:43:24;11.90;96.40
43338;DHT22;28933;52.492;13.434;2023-04-21T02:45:50;11.90;96.40
43338;DHT22;28933;52.492;13.434;2023-04-21T02:48:16;11.90;96.40
43338;DHT22;28933;52.492;13.434;2023-04-21T02:50:50;11.90;96.30
43338;DHT22;28933;52.492;13.434;2023-04-21T02:53:20;11.90;96.30
43338;DHT22;28933;52.492;13.434;2023-04-21T02:55:46;11.90;96.30
43338;DHT22;28933;52.492;13.434;2023-04-21T02:58:11;11.90;96.20
43338;DHT22;28933;52.492;13.434;2023-04-21T03:00:37;11.80;96.20
43338;DHT22;28933;52.492;13.434;2023-04-21T03:03:03;11.80;96.20
43338;DHT22;28933;52.492;13.434;2023-04-21T03:05:29;11.80;96.20
43338;DHT22;28933;52.492;13.434;2023-04-21T03:07:54;11.80;96.20
43338;DHT22;28933;52.492;13.434;2023-04-21T03:10:20;11.80;96.20
43338;DHT22;28933;52.492;13.434;2023-04-21T03:12:46;11.80;96.20
43338;DHT22;28933;52.492;13.434;2023-04-21T03:15:11;11.80;96.20
43338;DHT22;28933;52.492;13.434;2023-04-21T03:17:39;11.80;96.20
43338;DHT22;28933;52.492;13.434;2023-04-21T03:20:05;11.80;96.10
43338;DHT22;28933;52.492;13.434;2023-04-21T03:22:34;11.70;96.10
43338;DHT22;28933;52.492;13.434;2023-04-21T03:24:59;11.70;96.10
43338;DHT22;28933;52.492;13.434;2023-04-21T03:27:25;11.70;96.10
43338;DHT22;28933;52.492;13.434;2023-04-21T03:29:51;11.60;96.10
43338;DHT22;28933;52.492;13.434;2023-04-21T03:32:16;11.60;96.10
43338;DHT22;28933;52.492;13.434;2023-04-21T03:34:42;11.60;96.10
43338;DHT22;28933;52.492;13.434;2023-04-21T03:37:07;11.60;96.10
43338;DHT22;28933;52.492;13.434;2023-04-21T03:39:33;11.50;96.10
43338;DHT22;28933;52.492;13.434;2023-04-21T03:41:59;11.50;96.10
43338;DHT22;28933;52.492;13.434;2023-04-21T03:44:25;11.50;96.10
43338;DHT22;28933;52.492;13.434;2023-04-21T03:46:54;11.50;96.10
43338;DHT22;28933;52.492;13.434;2023-04-21T03:49:20;11.40;96.10
43338;DHT22;28933;52.492;13.434;2023-04-21T03:51:46;11.40;96.10
43338;DHT22;28933;52.492;13.434;2023-04-21T03:54:11;11.40;96.10
43338;DHT22;28933;52.492;13.434;2023-04-21T03:56:37;11.40;96.10
43338;DHT22;28933;52.492;13.434;2023-04-21T03:59:02;11.40;96.20
43338;DHT22;28933;52.492;13.434;2023-04-21T04:01:28;11.40;96.20
43338;DHT22;28933;52.492;13.434;2023-04-21T04:03:54;11.40;96.20
43338;DHT22;28933;52.492;13.434;2023-04-21T04:06:19;11.30;96.20
43338;DHT22;28933;52.492;13.434;2023-04-21T04:08:45;11.30;96.20
43338;DHT22;28933;52.492;13.434;2023-04-21T04:11:11;11.30;96.20
43338;DHT22;28933;52.492;13.434;2023-04-21T04:13:36;11.30;96.20
43338;DHT22;28933;52.492;13.434;2023-04-21T04:16:02;11.30;96.20
43338;DHT22;28933;52.492;13.434;2023-04-21T04:18:28;11.30;96.20
43338;DHT22;28933;52.492;13.434;2023-04-21T04:20:53;11.30;96.20
43338;DHT22;28933;52.492;13.434;2023-04-21T04:23:19;11.30;96.20
43338;DHT22;28933;52.492;13.434;2023-04-21T04:25:44;11.30;96.20
43338;DHT22;28933;52.492;13.434;2023-04-21T04:28:12;11.30;96.20
43338;DHT22;28933;52.492;13.434;2023-04-21T04:30:38;11.30;96.20
43338;DHT22;28933;52.492;13.434;2023-04-21T04:33:03;11.30;96.20
43338;DHT22;28933;52.492;13.434;2023-04-21T04:35:29;11.30;96.20
43338;DHT22;28933;52.492;13.434;2023-04-21T04:37:55;11.20;96.20
43338;DHT22;28933;52.492;13.434;2023-04-21T04:40:22;11.30;96.20
43338;DHT22;28933;52.492;13.434;2023-04-21T04:42:47;11.30;96.20
43338;DHT22;28933;52.492;13.434;2023-04-21T04:45:13;11.30;96.20
43338;DHT22;28933;52.492;13.434;2023-04-21T04:47:41;11.30;96.20
43338;DHT22;28933;52.492;13.434;2023-04-21T04:50:07;11.30;96.20
43338;DHT22;28933;52.492;13.434;2023-04-21T04:52:33;11.30;96.20
43338;DHT22;28933;52.492;13.434;2023-04-21T04:54:58;11.30;96.20
43338;DHT22;28933;52.492;13.434;2023-04-21T04:57:24;11.30;96.20
43338;DHT22;28933;52.492;13.434;2023-04-21T04:59:54;11.30;96.10
43338;DHT22;28933;52.492;13.434;2023-04-21T05:02:20;11.30;96.10
43338;DHT22;28933;52.492;13.434;2023-04-21T05:04:50;11.40;96.10
43338;DHT22;28933;52.492;13.434;2023-04-21T05:07:16;11.30;96.10
43338;DHT22;28933;52.492;13.434;2023-04-21T05:09:41;11.40;96.00
43338;DHT22;28933;52.492;13.434;2023-04-21T05:12:08;11.40;96.00
43338;DHT22;28933;52.492;13.434;2023-04-21T05:14:33;11.40;96.00
43338;DHT22;28933;52.492;13.434;2023-04-21T05:16:59;11.40;96.00
43338;DHT22;28933;52.492;13.434;2023-04-21T05:19:24;11.50;95.90
43338;DHT22;28933;52.492;13.434;2023-04-21T05:21:50;11.50;95.90
43338;DHT22;28933;52.492;13.434;2023-04-21T05:24:16;11.50;95.90
43338;DHT22;28933;52.492;13.434;2023-04-21T05:26:47;11.50;95.80
43338;DHT22;28933;52.492;13.434;2023-04-21T05:29:13;11.50;95.80
43338;DHT22;28933;52.492;13.434;2023-04-21T05:31:38;11.60;95.80
43338;DHT22;28933;52.492;13.434;2023-04-21T05:34:04;11.60;96.00
43338;DHT22;28933;52.492;13.434;2023-04-21T05:36:30;11.60;95.70
43338;DHT22;28933;52.492;13.434;2023-04-21T05:38:56;11.70;95.70
43338;DHT22;28933;52.492;13.434;2023-04-21T05:41:21;11.70;95.70
43338;DHT22;28933;52.492;13.434;2023-04-21T05:43:47;11.70;95.70
43338;DHT22;28933;52.492;13.434;2023-04-21T05:46:12;11.70;95.60
43338;DHT22;28933;52.492;13.434;2023-04-21T05:48:38;11.80;95.50
43338;DHT22;28933;52.492;13.434;2023-04-21T05:51:22;11.80;95.40
43338;DHT22;28933;52.492;13.434;2023-04-21T05:53:48;11.90;95.50
43338;DHT22;28933;52.492;13.434;2023-04-21T05:56:13;11.90;95.40
43338;DHT22;28933;52.492;13.434;2023-04-21T05:58:39;12.00;95.30
43338;DHT22;28933;52.492;13.434;2023-04-21T06:01:05;12.00;95.30
43338;DHT22;28933;52.492;13.434;2023-04-21T06:03:31;12.10;95.30
43338;DHT22;28933;52.492;13.434;2023-04-21T06:05:59;12.10;95.20
43338;DHT22;28933;52.492;13.434;2023-04-21T06:08:25;12.20;95.10
43338;DHT22;28933;52.492;13.434;2023-04-21T06:10:51;12.20;95.10
43338;DHT22;28933;52.492;13.434;2023-04-21T06:13:16;12.30;95.10
43338;DHT22;28933;52.492;13.434;2023-04-21T06:15:42;12.40;95.00
43338;DHT22;28933;52.492;13.434;2023-04-21T06:18:08;12.40;94.90
43338;DHT22;28933;52.492;13.434;2023-04-21T06:20:33;12.40;94.90
43338;DHT22;28933;52.492;13.434;2023-04-21T06:22:59;12.50;94.60
43338;DHT22;28933;52.492;13.434;2023-04-21T06:25:25;12.50;94.70
43338;DHT22;28933;52.492;13.434;2023-04-21T06:27:50;12.60;94.70
43338;DHT22;28933;52.492;13.434;2023-04-21T06:30:16;12.60;94.50
43338;DHT22;28933;52.492;13.434;2023-04-21T06:32:42;12.70;94.50
43338;DHT22;28933;52.492;13.434;2023-04-21T06:35:10;12.80;94.40
43338;DHT22;28933;52.492;13.434;2023-04-21T06:37:36;12.80;94.30
43338;DHT22;28933;52.492;13.434;2023-04-21T06:40:01;12.90;94.10
43338;DHT22;28933;52.492;13.434;2023-04-21T06:42:27;13.00;94.20
43338;DHT22;28933;52.492;13.434;2023-04-21T06:44:53;13.00;94.10
43338;DHT22;28933;52.492;13.434;2023-04-21T06:47:20;13.10;94.10
43338;DHT22;28933;52.492;13.434;2023-04-21T06:49:46;13.20;93.90
43338;DHT22;28933;52.492;13.434;2023-04-21T06:52:11;13.30;93.90
43338;DHT22;28933;52.492;13.434;2023-04-21T06:54:37;13.30;93.80
43338;DHT22;28933;52.492;13.434;2023-04-21T06:57:02;13.40;93.70
43338;DHT22;28933;52.492;13.434;2023-04-21T06:59:28;13.40;93.70
43338;DHT22;28933;52.492;13.434;2023-04-21T07:01:53;13.50;93.60
43338;DHT22;28933;52.492;13.434;2023-04-21T07:04:19;13.60;93.50
43338;DHT22;28933;52.492;13.434;2023-04-21T07:06:46;13.60;93.30
43338;DHT22;28933;52.492;13.434;2023-04-21T07:09:12;13.70;93.30
43338;DHT22;28933;52.492;13.434;2023-04-21T07:11:38;13.70;93.10
43338;DHT22;28933;52.492;13.434;2023-04-21T07:14:04;13.80;93.10
43338;DHT22;28933;52.492;13.434;2023-04-21T07:16:31;13.80;93.00
43338;DHT22;28933;52.492;13.434;2023-04-21T07:18:56;13.80;92.90
43338;DHT22;28933;52.492;13.434;2023-04-21T07:21:22;13.90;92.80
43338;DHT22;28933;52.492;13.434;2023-04-21T07:23:48;14.00;92.90
43338;DHT22;28933;52.492;13.434;2023-04-21T07:26:13;14.00;92.70
43338;DHT22;28933;52.492;13.434;2023-04-21T07:28:39;14.10;92.60
43338;DHT22;28933;52.492;13.434;2023-04-21T07:31:07;14.10;92.60
43338;DHT22;28933;52.492;13.434;2023-04-21T07:33:33;14.20;92.50
43338;DHT22;28933;52.492;13.434;2023-04-21T07:35:59;14.20;92.30
43338;DHT22;28933;52.492;13.434;2023-04-21T07:38:24;14.30;92.40
43338;DHT22;28933;52.492;13.434;2023-04-21T07:40:50;14.30;92.30
43338;DHT22;28933;52.492;13.434;2023-04-21T07:43:16;14.40;91.90
43338;DHT22;28933;52.492;13.434;2023-04-21T07:45:44;14.40;92.00
43338;DHT22;28933;52.492;13.434;2023-04-21T07:48:10;14.40;91.70
43338;DHT22;28933;52.492;13.434;2023-04-21T07:50:35;14.50;91.60
43338;DHT22;28933;52.492;13.434;2023-04-21T07:53:01;14.60;91.70
43338;DHT22;28933;52.492;13.434;2023-04-21T07:55:28;14.60;91.40
43338;DHT22;28933;52.492;13.434;2023-04-21T07:57:53;14.70;91.30
43338;DHT22;28933;52.492;13.434;2023-04-21T08:00:19;14.70;91.30
43338;DHT22;28933;52.492;13.434;2023-04-21T08:02:45;14.80;91.20
43338;DHT22;28933;52.492;13.434;2023-04-21T08:05:11;14.90;91.20
43338;DHT22;28933;52.492;13.434;2023-04-21T08:07:37;14.90;91.10
43338;DHT22;28933;52.492;13.434;2023-04-21T08:10:03;15.00;91.10
43338;DHT22;28933;52.492;13.434;2023-04-21T08:12:29;15.10;91.10
43338;DHT22;28933;52.492;13.434;2023-04-21T08:14:54;15.10;90.60
43338;DHT22;28933;52.492;13.434;2023-04-21T08:17:20;15.20;90.50
43338;DHT22;28933;52.492;13.434;2023-04-21T08:19:46;15.30;90.70
43338;DHT22;28933;52.492;13.434;2023-04-21T08:22:11;15.30;90.50
43338;DHT22;28933;52.492;13.434;2023-04-21T08:24:37;15.40;90.40
43338;DHT22;28933;52.492;13.434;2023-04-21T08:27:02;15.40;90.00
43338;DHT22;28933;52.492;13.434;2023-04-21T08:29:28;15.50;89.90
43338;DHT22;28933;52.492;13.434;2023-04-21T08:31:54;15.60;89.70
43338;DHT22;28933;52.492;13.434;2023-04-21T08:34:21;15.70;90.00
43338;DHT22;28933;52.492;13.434;2023-04-21T08:36:46;15.80;90.00
43338;DHT22;28933;52.492;13.434;2023-04-21T08:39:13;15.90;89.70
43338;DHT22;28933;52.492;13.434;2023-04-21T08:41:40;15.90;88.80
43338;DHT22;28933;52.492;13.434;2023-04-21T08:44:07;16.00;88.90
43338;DHT22;28933;52.492;13.434;2023-04-21T08:46:34;16.10;88.80
43338;DHT22;28933;52.492;13.434;2023-04-21T08:49:00;16.20;88.10
43338;DHT22;28933;52.492;13.434;2023-04-21T08:51:27;16.20;87.70
43338;DHT22;28933;52.492;13.434;2023-04-21T08:53:56;16.30;87.40
43338;DHT22;28933;52.492;13.434;2023-04-21T08:56:25;16.40;87.40
43338;DHT22;28933;52.492;13.434;2023-04-21T08:58:51;16.50;86.70
43338;DHT22;28933;52.492;13.434;2023-04-21T09:01:17;16.60;86.50
43338;DHT22;28933;52.492;13.434;2023-04-21T09:03:42;16.60;86.10
43338;DHT22;28933;52.492;13.434;2023-04-21T09:06:09;16.70;85.80
43338;DHT22;28933;52.492;13.434;2023-04-21T09:08:41;16.80;85.70
43338;DHT22;28933;52.492;13.434;2023-04-21T09:11:06;16.80;85.30
43338;DHT22;28933;52.492;13.434;2023-04-21T09:13:34;16.90;85.00
43338;DHT22;28933;52.492;13.434;2023-04-21T09:16:02;17.00;84.40
43338;DHT22;28933;52.492;13.434;2023-04-21T09:18:29;17.00;84.30
43338;DHT22;28933;52.492;13.434;2023-04-21T09:24:03;17.20;83.30
43338;DHT22;28933;52.492;13.434;2023-04-21T09:26:30;17.30;83.50
43338;DHT22;28933;52.492;13.434;2023-04-21T09:28:56;17.30;83.10
43338;DHT22;28933;52.492;13.434;2023-04-21T09:31:22;17.30;83.40
43338;DHT22;28933;52.492;13.434;2023-04-21T09:33:56;17.40;82.70
43338;DHT22;28933;52.492;13.434;2023-04-21T09:36:27;17.50;82.50
43338;DHT22;28933;52.492;13.434;2023-04-21T09:41:19;17.70;81.60
43338;DHT22;28933;52.492;13.434;2023-04-21T09:43:46;17.80;81.40
43338;DHT22;28933;52.492;13.434;2023-04-21T09:46:18;17.90;81.50
43338;DHT22;28933;52.492;13.434;2023-04-21T09:48:45;18.00;82.00
43338;DHT22;28933;52.492;13.434;2023-04-21T09:51:12;18.00;81.30
43338;DHT22;28933;52.492;13.434;2023-04-21T09:53:39;18.10;81.20
43338;DHT22;28933;52.492;13.434;2023-04-21T09:56:11;18.20;80.80
43338;DHT22;28933;52.492;13.434;2023-04-21T09:58:45;18.30;80.50
43338;DHT22;28933;52.492;13.434;2023-04-21T10:01:13;18.30;79.60
43338;DHT22;28933;52.492;13.434;2023-04-21T10:03:40;18.30;79.00
43338;DHT22;28933;52.492;13.434;2023-04-21T10:06:07;18.40;78.90
43338;DHT22;28933;52.492;13.434;2023-04-21T10:08:33;18.50;78.90
43338;DHT22;28933;52.492;13.434;2023-04-21T10:11:01;18.50;79.00
43338;DHT22;28933;52.492;13.434;2023-04-21T10:13:27;18.60;78.90
43338;DHT22;28933;52.492;13.434;2023-04-21T10:16:07;18.70;78.50
43338;DHT22;28933;52.492;13.434;2023-04-21T10:18:37;18.80;77.30
43338;DHT22;28933;52.492;13.434;2023-04-21T10:21:09;18.80;77.20
43338;DHT22;28933;52.492;13.434;2023-04-21T10:23:40;18.80;76.30
43338;DHT22;28933;52.492;13.434;2023-04-21T10:26:13;18.90;76.40
43338;DHT22;28933;52.492;13.434;2023-04-21T10:28:58;18.90;75.10
43338;DHT22;28933;52.492;13.434;2023-04-21T10:31:31;18.90;75.40
43338;DHT22;28933;52.492;13.434;2023-04-21T10:39:23;19.00;74.20
43338;DHT22;28933;52.492;13.434;2023-04-21T10:41:50;19.00;74.60
43338;DHT22;28933;52.492;13.434;2023-04-21T10:44:16;19.10;73.90
43338;DHT22;28933;52.492;13.434;2023-04-21T10:46:47;19.10;74.10
43338;DHT22;28933;52.492;13.434;2023-04-21T10:57:16;19.40;74.00
43338;DHT22;28933;52.492;13.434;2023-04-21T10:59:43;19.40;72.10
43338;DHT22;28933;52.492;13.434;2023-04-21T11:02:13;19.40;72.10
43338;DHT22;28933;52.492;13.434;2023-04-21T11:04:40;19.50;72.20
43338;DHT22;28933;52.492;13.434;2023-04-21T11:07:20;19.50;72.60
43338;DHT22;28933;52.492;13.434;2023-04-21T11:09:47;19.60;72.20
43338;DHT22;28933;52.492;13.434;2023-04-21T11:12:16;19.60;72.10
43338;DHT22;28933;52.492;13.434;2023-04-21T11:14:44;19.60;71.20
43338;DHT22;28933;52.492;13.434;2023-04-21T11:17:13;19.60;70.70
43338;DHT22;28933;52.492;13.434;2023-04-21T11:19:40;19.60;70.00
43338;DHT22;28933;52.492;13.434;2023-04-21T11:22:06;19.60;69.90
43338;DHT22;28933;52.492;13.434;2023-04-21T11:24:32;19.50;69.30
43338;DHT22;28933;52.492;13.434;2023-04-21T11:26:58;19.60;69.70
43338;DHT22;28933;52.492;13.434;2023-04-21T11:29:26;19.60;70.30
43338;DHT22;28933;52.492;13.434;2023-04-21T11:31:54;19.70;70.30
43338;DHT22;28933;52.492;13.434;2023-04-21T11:34:20;19.80;70.30
43338;DHT22;28933;52.492;13.434;2023-04-21T11:36:47;19.80;70.20
43338;DHT22;28933;52.492;13.434;2023-04-21T11:39:14;19.80;69.40
43338;DHT22;28933;52.492;13.434;2023-04-21T11:41:43;19.80;69.50
43338;DHT22;28933;52.492;13.434;2023-04-21T11:44:10;19.80;69.00
43338;DHT22;28933;52.492;13.434;2023-04-21T11:46:37;19.80;68.90
43338;DHT22;28933;52.492;13.434;2023-04-21T11:49:12;19.70;66.80
43338;DHT22;28933;52.492;13.434;2023-04-21T11:51:42;19.70;67.20
43338;DHT22;28933;52.492;13.434;2023-04-21T11:54:13;19.70;67.20
43338;DHT22;28933;52.492;13.434;2023-04-21T11:56:40;19.70;67.10
43338;DHT22;28933;52.492;13.434;2023-04-21T11:59:10;19.60;67.00
43338;DHT22;28933;52.492;13.434;2023-04-21T12:01:50;19.60;66.80
43338;DHT22;28933;52.492;13.434;2023-04-21T12:04:18;19.60;66.90
43338;DHT22;28933;52.492;13.434;2023-04-21T12:06:45;19.60;67.30
43338;DHT22;28933;52.492;13.434;2023-04-21T12:09:18;19.60;67.80
43338;DHT22;28933;52.492;13.434;2023-04-21T12:11:47;19.60;67.80
43338;DHT22;28933;52.492;13.434;2023-04-21T12:14:14;19.60;67.70
43338;DHT22;28933;52.492;13.434;2023-04-21T12:16:41;19.60;66.90
43338;DHT22;28933;52.492;13.434;2023-04-21T12:19:07;19.50;65.60
43338;DHT22;28933;52.492;13.434;2023-04-21T12:21:32;19.50;66.10
43338;DHT22;28933;52.492;13.434;2023-04-21T12:23:58;19.70;66.80
43338;DHT22;28933;52.492;13.434;2023-04-21T12:26:23;19.70;67.40
43338;DHT22;28933;52.492;13.434;2023-04-21T12:28:50;19.80;67.00
43338;DHT22;28933;52.492;13.434;2023-04-21T12:31:17;19.80;66.50
43338;DHT22;28933;52.492;13.434;2023-04-21T12:33:42;19.80;66.70
43338;DHT22;28933;52.492;13.434;2023-04-21T12:36:08;19.90;66.90
43338;DHT22;28933;52.492;13.434;2023-04-21T12:38:34;20.00;67.30
43338;DHT22;28933;52.492;13.434;2023-04-21T12:41:00;20.00;67.00
43338;DHT22;28933;52.492;13.434;2023-04-21T12:43:25;20.00;66.30
43338;DHT22;28933;52.492;13.434;2023-04-21T12:45:51;20.00;66.60
43338;DHT22;28933;52.492;13.434;2023-04-21T12:48:17;20.00;66.10
43338;DHT22;28933;52.492;13.434;2023-04-21T12:50:45;20.10;65.90
43338;DHT22;28933;52.492;13.434;2023-04-21T12:53:12;20.10;65.10
43338;DHT22;28933;52.492;13.434;2023-04-21T12:55:37;20.20;65.00
43338;DHT22;28933;52.492;13.434;2023-04-21T12:58:03;20.20;64.00
43338;DHT22;28933;52.492;13.434;2023-04-21T13:00:29;20.30;64.00
43338;DHT22;28933;52.492;13.434;2023-04-21T13:02:54;20.40;64.50
43338;DHT22;28933;52.492;13.434;2023-04-21T13:05:20;20.40;63.90
43338;DHT22;28933;52.492;13.434;2023-04-21T13:07:46;20.40;62.80
43338;DHT22;28933;52.492;13.434;2023-04-21T13:10:11;20.40;62.90
43338;DHT22;28933;52.492;13.434;2023-04-21T13:12:37;20.40;62.60
43338;DHT22;28933;52.492;13.434;2023-04-21T13:15:03;20.40;62.30
43338;DHT22;28933;52.492;13.434;2023-04-21T13:17:29;20.50;61.60
43338;DHT22;28933;52.492;13.434;2023-04-21T13:19:55;20.40;61.30
43338;DHT22;28933;52.492;13.434;2023-04-21T13:22:21;20.40;61.20
43338;DHT22;28933;52.492;13.434;2023-04-21T13:24:46;20.40;61.50
43338;DHT22;28933;52.492;13.434;2023-04-21T13:27:12;20.40;61.60
43338;DHT22;28933;52.492;13.434;2023-04-21T13:29:38;20.50;61.60
43338;DHT22;28933;52.492;13.434;2023-04-21T13:32:06;20.60;61.40
43338;DHT22;28933;52.492;13.434;2023-04-21T13:34:32;20.70;61.50
43338;DHT22;28933;52.492;13.434;2023-04-21T13:36:59;20.70;61.50
43338;DHT22;28933;52.492;13.434;2023-04-21T13:39:25;20.80;60.20
43338;DHT22;28933;52.492;13.434;2023-04-21T13:41:51;20.70;60.90
43338;DHT22;28933;52.492;13.434;2023-04-21T13:44:17;20.70;60.50
43338;DHT22;28933;52.492;13.434;2023-04-21T13:46:43;20.60;60.60
43338;DHT22;28933;52.492;13.434;2023-04-21T13:49:09;20.60;60.40
43338;DHT22;28933;52.492;13.434;2023-04-21T13:51:35;20.60;60.00
43338;DHT22;28933;52.492;13.434;2023-04-21T13:54:01;20.60;60.10
43338;DHT22;28933;52.492;13.434;2023-04-21T13:56:27;20.60;60.40
43338;DHT22;28933;52.492;13.434;2023-04-21T13:58:52;20.80;60.00
43338;DHT22;28933;52.492;13.434;2023-04-21T14:01:19;20.90;60.40
43338;DHT22;28933;52.492;13.434;2023-04-21T14:03:45;20.90;60.10
43338;DHT22;28933;52.492;13.434;2023-04-21T14:06:10;20.90;59.90
43338;DHT22;28933;52.492;13.434;2023-04-21T14:08:36;21.00;59.60
43338;DHT22;28933;52.492;13.434;2023-04-21T14:11:03;21.00;59.00
43338;DHT22;28933;52.492;13.434;2023-04-21T14:13:28;21.00;58.20
43338;DHT22;28933;52.492;13.434;2023-04-21T14:15:55;21.10;58.50
43338;DHT22;28933;52.492;13.434;2023-04-21T14:18:21;21.10;58.60
43338;DHT22;28933;52.492;13.434;2023-04-21T14:20:47;21.20;58.40
43338;DHT22;28933;52.492;13.434;2023-04-21T14:23:13;21.20;58.40
43338;DHT22;28933;52.492;13.434;2023-04-21T14:25:38;21.20;58.20
43338;DHT22;28933;52.492;13.434;2023-04-21T14:28:04;21.20;58.30
43338;DHT22;28933;52.492;13.434;2023-04-21T14:30:35;21.30;58.10
43338;DHT22;28933;52.492;13.434;2023-04-21T14:33:01;21.30;57.20
43338;DHT22;28933;52.492;13.434;2023-04-21T14:35:27;21.40;57.70
43338;DHT22;28933;52.492;13.434;2023-04-21T14:37:53;21.50;57.30
43338;DHT22;28933;52.492;13.434;2023-04-21T14:40:18;21.50;57.50
43338;DHT22;28933;52.492;13.434;2023-04-21T14:42:44;21.60;56.80
43338;DHT22;28933;52.492;13.434;2023-04-21T14:45:10;21.60;56.90
43338;DHT22;28933;52.492;13.434;2023-04-21T14:47:36;21.70;57.20
43338;DHT22;28933;52.492;13.434;2023-04-21T14:50:03;21.70;57.00
43338;DHT22;28933;52.492;13.434;2023-04-21T14:52:30;21.80;56.50
43338;DHT22;28933;52.492;13.434;2023-04-21T14:54:56;21.80;56.10
43338;DHT22;28933;52.492;13.434;2023-04-21T14:57:21;21.80;56.10
43338;DHT22;28933;52.492;13.434;2023-04-21T14:59:51;21.90;56.20
43338;DHT22;28933;52.492;13.434;2023-04-21T15:02:18;21.90;55.70
43338;DHT22;28933;52.492;13.434;2023-04-21T15:04:44;21.90;55.40
43338;DHT22;28933;52.492;13.434;2023-04-21T15:07:09;21.80;55.10
43338;DHT22;28933;52.492;13.434;2023-04-21T15:09:35;21.90;55.20
43338;DHT22;28933;52.492;13.434;2023-04-21T15:12:01;21.90;54.80
43338;DHT22;28933;52.492;13.434;2023-04-21T15:14:26;21.80;54.90
43338;DHT22;28933;52.492;13.434;2023-04-21T15:16:52;21.80;55.00
43338;DHT22;28933;52.492;13.434;2023-04-21T15:19:18;21.90;54.90
43338;DHT22;28933;52.492;13.434;2023-04-21T15:21:43;21.90;54.80
43338;DHT22;28933;52.492;13.434;2023-04-21T15:24:09;22.00;54.80
43338;DHT22;28933;52.492;13.434;2023-04-21T15:26:35;22.00;54.70
43338;DHT22;28933;52.492;13.434;2023-04-21T15:29:02;22.10;54.50
43338;DHT22;28933;52.492;13.434;2023-04-21T15:31:27;22.20;54.10